sensor_id;sensor_type;location;lat;lon;timestamp;pressure;altitude;pressure_sealevel;temperature;humidity
77325;BME280;66387;53.440;10.390;2023-04-29T00:01:42;100351.47;;;8.75;94.80
77325;BME280;66387;53.440;10.390;2023-04-29T00:04:07;100327.50;;;8.59;94.67
77325;BME280;66387;53.440;10.390;2023-04-29T00:06:33;100353.31;;;8.65;94.17
77325;BME280;66387;53.440;10.390;2023-04-29T00:08:58;100348.91;;;8.73;94.71
77325;BME280;66387;53.440;10.390;2023-04-29T00:11:23;100359.41;;;8.57;95.07
77325;BME280;66387;53.440;10.390;2023-04-29T00:13:49;100358.56;;;8.55;94.99
77325;BME280;66387;53.440;10.390;2023-04-29T00:16:14;100362.00;;;8.58;94.88
77325;BME280;66387;53.440;10.390;2023-04-29T00:18:39;100362.84;;;8.57;94.44
77325;BME280;66387;53.440;10.390;2023-04-29T00:21:04;100361.13;;;8.59;94.56
77325;BME280;66387;53.440;10.390;2023-04-29T00:23:31;100365.50;;;8.50;94.42
77325;BME280;66387;53.440;10.390;2023-04-29T00:25:56;100372.38;;;8.55;94.81
77325;BME280;66387;53.440;10.390;2023-04-29T00:28:22;100375.06;;;8.42;95.19
77325;BME280;66387;53.440;10.390;2023-04-29T00:30:47;100374.22;;;8.38;94.65
77325;BME280;66387;53.440;10.390;2023-04-29T00:33:12;100363.81;;;8.46;94.81
77325;BME280;66387;53.440;10.390;2023-04-29T00:35:38;100361.28;;;8.38;94.84
77325;BME280;66387;53.440;10.390;2023-04-29T00:38:03;100373.34;;;8.41;94.67
77325;BME280;66387;53.440;10.390;2023-04-29T00:40:28;100375.09;;;8.38;94.90
77325;BME280;66387;53.440;10.390;2023-04-29T00:42:53;100375.13;;;8.37;95.16
77325;BME280;66387;53.440;10.390;2023-04-29T00:45:19;100378.53;;;8.41;95.47
77325;BME280;66387;53.440;10.390;2023-04-29T00:47:44;100380.22;;;8.42;94.77
77325;BME280;66387;53.440;10.390;2023-04-29T00:50:09;100384.50;;;8.47;94.97
77325;BME280;66387;53.440;10.390;2023-04-29T00:52:36;100377.59;;;8.52;95.53
77325;BME280;66387;53.440;10.390;2023-04-29T00:55:04;100369.06;;;8.41;95.47
77325;BME280;66387;53.440;10.390;2023-04-29T00:57:30;100379.38;;;8.43;95.37
77325;BME280;66387;53.440;10.390;2023-04-29T00:59:56;100380.28;;;8.35;95.94
77325;BME280;66387;53.440;10.390;2023-04-29T01:02:22;100380.25;;;8.38;95.68
77325;BME280;66387;53.440;10.390;2023-04-29T01:04:47;100383.72;;;8.41;95.68
77325;BME280;66387;53.440;10.390;2023-04-29T01:07:14;100379.38;;;8.44;96.15
77325;BME280;66387;53.440;10.390;2023-04-29T01:10:08;100382.06;;;8.30;96.44
77325;BME280;66387;53.440;10.390;2023-04-29T01:17:30;100394.13;;;8.28;96.82
77325;BME280;66387;53.440;10.390;2023-04-29T01:20:00;100396.59;;;8.42;96.17
77325;BME280;66387;53.440;10.390;2023-04-29T01:22:26;100401.84;;;8.34;96.48
77325;BME280;66387;53.440;10.390;2023-04-29T01:24:51;100405.31;;;8.33;96.27
77325;BME280;66387;53.440;10.390;2023-04-29T01:30:08;100402.72;;;8.32;96.58
77325;BME280;66387;53.440;10.390;2023-04-29T01:32:49;100410.47;;;8.36;96.39
77325;BME280;66387;53.440;10.390;2023-04-29T01:35:29;100408.75;;;8.35;95.92
77325;BME280;66387;53.440;10.390;2023-04-29T01:38:15;100412.19;;;8.38;95.95
77325;BME280;66387;53.440;10.390;2023-04-29T01:40:56;100413.16;;;8.18;96.18
77325;BME280;66387;53.440;10.390;2023-04-29T01:43:27;100414.88;;;8.18;96.61
77325;BME280;66387;53.440;10.390;2023-04-29T01:45:55;100423.44;;;8.24;96.92
77325;BME280;66387;53.440;10.390;2023-04-29T01:48:22;100429.53;;;8.19;96.23
77325;BME280;66387;53.440;10.390;2023-04-29T01:50:47;100428.59;;;8.27;96.17
77325;BME280;66387;53.440;10.390;2023-04-29T01:53:13;100426.03;;;8.20;96.46
77325;BME280;66387;53.440;10.390;2023-04-29T01:55:38;100426.03;;;8.24;96.17
77325;BME280;66387;53.440;10.390;2023-04-29T01:58:03;100435.56;;;8.15;96.52
77325;BME280;66387;53.440;10.390;2023-04-29T02:00:28;100418.38;;;8.12;96.42
77325;BME280;66387;53.440;10.390;2023-04-29T02:02:54;100435.53;;;8.21;96.54
77325;BME280;66387;53.440;10.390;2023-04-29T02:05:19;100440.78;;;8.12;96.80
77325;BME280;66387;53.440;10.390;2023-04-29T02:07:44;100444.13;;;8.24;96.06
77325;BME280;66387;53.440;10.390;2023-04-29T02:10:10;100435.53;;;8.16;95.66
77325;BME280;66387;53.440;10.390;2023-04-29T02:12:36;100451.03;;;8.21;96.11
77325;BME280;66387;53.440;10.390;2023-04-29T02:15:01;100443.28;;;8.21;95.91
77325;BME280;66387;53.440;10.390;2023-04-29T02:17:26;100457.06;;;8.20;95.52
77325;BME280;66387;53.440;10.390;2023-04-29T02:19:51;100456.22;;;8.22;95.99
77325;BME280;66387;53.440;10.390;2023-04-29T02:22:19;100457.06;;;8.29;95.95
77325;BME280;66387;53.440;10.390;2023-04-29T02:24:44;100459.63;;;8.27;95.47
77325;BME280;66387;53.440;10.390;2023-04-29T02:27:10;100470.00;;;8.30;95.35
77325;BME280;66387;53.440;10.390;2023-04-29T02:29:35;100466.56;;;8.30;95.62
77325;BME280;66387;53.440;10.390;2023-04-29T02:32:01;100465.69;;;8.20;95.75
77325;BME280;66387;53.440;10.390;2023-04-29T02:34:26;100477.72;;;8.27;95.19
77325;BME280;66387;53.440;10.390;2023-04-29T02:36:52;100476.88;;;8.24;95.29
77325;BME280;66387;53.440;10.390;2023-04-29T02:39:17;100480.34;;;8.30;95.21
77325;BME280;66387;53.440;10.390;2023-04-29T02:41:43;100482.03;;;8.36;95.27
77325;BME280;66387;53.440;10.390;2023-04-29T02:44:09;100480.38;;;8.18;95.38
77325;BME280;66387;53.440;10.390;2023-04-29T02:46:34;100483.78;;;8.26;94.95
77325;BME280;66387;53.440;10.390;2023-04-29T02:49:01;100480.34;;;8.29;94.74
77325;BME280;66387;53.440;10.390;2023-04-29T02:51:27;100488.94;;;8.26;95.02
77325;BME280;66387;53.440;10.390;2023-04-29T02:53:52;100497.63;;;8.19;95.44
77325;BME280;66387;53.440;10.390;2023-04-29T02:56:17;100494.19;;;8.14;95.64
77325;BME280;66387;53.440;10.390;2023-04-29T02:58:43;100493.28;;;8.17;95.16
77325;BME280;66387;53.440;10.390;2023-04-29T03:01:08;100495.88;;;8.21;95.37
77325;BME280;66387;53.440;10.390;2023-04-29T03:03:33;100505.38;;;8.18;95.53
77325;BME280;66387;53.440;10.390;2023-04-29T03:05:59;100502.75;;;8.21;95.66
77325;BME280;66387;53.440;10.390;2023-04-29T03:08:24;100505.41;;;8.10;95.76
77325;BME280;66387;53.440;10.390;2023-04-29T03:10:49;100505.41;;;8.07;95.78
77325;BME280;66387;53.440;10.390;2023-04-29T03:13:14;100515.72;;;8.09;95.55
77325;BME280;66387;53.440;10.390;2023-04-29T03:15:40;100523.47;;;8.13;95.90
77325;BME280;66387;53.440;10.390;2023-04-29T03:18:05;100521.78;;;8.12;95.68
77325;BME280;66387;53.440;10.390;2023-04-29T03:20:30;100522.63;;;8.11;95.13
77325;BME280;66387;53.440;10.390;2023-04-29T03:22:56;100533.00;;;8.07;95.68
77325;BME280;66387;53.440;10.390;2023-04-29T03:25:22;100521.81;;;8.03;95.48
77325;BME280;66387;53.440;10.390;2023-04-29T03:27:48;100530.38;;;8.14;95.83
77325;BME280;66387;53.440;10.390;2023-04-29T03:30:13;100522.66;;;8.08;95.50
77325;BME280;66387;53.440;10.390;2023-04-29T03:32:38;100520.06;;;8.08;95.88
77325;BME280;66387;53.440;10.390;2023-04-29T03:35:04;100528.63;;;8.16;95.35
77325;BME280;66387;53.440;10.390;2023-04-29T03:37:29;100530.41;;;8.07;95.65
77325;BME280;66387;53.440;10.390;2023-04-29T03:39:54;100533.00;;;8.02;95.87
77325;BME280;66387;53.440;10.390;2023-04-29T03:42:19;100542.50;;;8.00;95.85
77325;BME280;66387;53.440;10.390;2023-04-29T03:44:45;100551.13;;;7.99;96.31
77325;BME280;66387;53.440;10.390;2023-04-29T03:47:10;100543.38;;;7.98;96.14
77325;BME280;66387;53.440;10.390;2023-04-29T03:49:36;100547.66;;;8.02;95.35
77325;BME280;66387;53.440;10.390;2023-04-29T03:52:01;100553.72;;;7.98;95.71
77325;BME280;66387;53.440;10.390;2023-04-29T03:54:28;100564.06;;;7.93;95.87
77325;BME280;66387;53.440;10.390;2023-04-29T03:56:54;100557.22;;;7.86;96.53
77325;BME280;66387;53.440;10.390;2023-04-29T03:59:19;100560.63;;;7.89;96.48
77325;BME280;66387;53.440;10.390;2023-04-29T04:01:44;100561.50;;;7.88;96.20
77325;BME280;66387;53.440;10.390;2023-04-29T04:04:09;100569.25;;;7.84;96.60
77325;BME280;66387;53.440;10.390;2023-04-29T04:06:35;100570.13;;;7.86;96.19
77325;BME280;66387;53.440;10.390;2023-04-29T04:09:00;100568.41;;;7.85;96.04
77325;BME280;66387;53.440;10.390;2023-04-29T04:11:25;100570.13;;;7.86;95.93
77325;BME280;66387;53.440;10.390;2023-04-29T04:13:50;100584.75;;;7.88;95.37
77325;BME280;66387;53.440;10.390;2023-04-29T04:16:16;100587.34;;;7.87;95.63
77325;BME280;66387;53.440;10.390;2023-04-29T04:18:41;100579.59;;;7.85;95.41
77325;BME280;66387;53.440;10.390;2023-04-29T04:21:08;100589.06;;;7.88;95.35
77325;BME280;66387;53.440;10.390;2023-04-29T04:23:33;100599.41;;;7.89;95.15
77325;BME280;66387;53.440;10.390;2023-04-29T04:25:58;100602.00;;;7.85;94.96
77325;BME280;66387;53.440;10.390;2023-04-29T04:28:24;100604.59;;;7.77;94.81
77325;BME280;66387;53.440;10.390;2023-04-29T04:30:49;100613.22;;;7.72;94.76
77325;BME280;66387;53.440;10.390;2023-04-29T04:33:15;100616.69;;;7.65;95.10
77325;BME280;66387;53.440;10.390;2023-04-29T04:35:42;100621.84;;;7.65;95.17
77325;BME280;66387;53.440;10.390;2023-04-29T04:38:07;100631.31;;;7.67;95.17
77325;BME280;66387;53.440;10.390;2023-04-29T04:40:33;100632.16;;;7.66;95.36
77325;BME280;66387;53.440;10.390;2023-04-29T04:42:58;100623.53;;;7.69;95.80
77325;BME280;66387;53.440;10.390;2023-04-29T04:45:23;100628.72;;;7.79;95.30
77325;BME280;66387;53.440;10.390;2023-04-29T04:47:49;100633.84;;;7.87;95.27
77325;BME280;66387;53.440;10.390;2023-04-29T04:50:14;100643.34;;;7.82;95.23
77325;BME280;66387;53.440;10.390;2023-04-29T04:52:39;100639.06;;;7.78;95.57
77325;BME280;66387;53.440;10.390;2023-04-29T04:55:05;100640.78;;;7.70;95.88
77325;BME280;66387;53.440;10.390;2023-04-29T04:57:30;100639.94;;;7.68;96.42
77325;BME280;66387;53.440;10.390;2023-04-29T04:59:55;100653.69;;;7.67;96.37
77325;BME280;66387;53.440;10.390;2023-04-29T05:02:21;100662.34;;;7.61;96.39
77325;BME280;66387;53.440;10.390;2023-04-29T05:04:46;100658.88;;;7.56;96.68
77325;BME280;66387;53.440;10.390;2023-04-29T05:07:11;100664.03;;;7.52;96.68
77325;BME280;66387;53.440;10.390;2023-04-29T05:09:36;100664.91;;;7.54;97.00
77325;BME280;66387;53.440;10.390;2023-04-29T05:12:02;100675.22;;;7.63;95.64
77325;BME280;66387;53.440;10.390;2023-04-29T05:14:27;100678.66;;;7.54;96.39
77325;BME280;66387;53.440;10.390;2023-04-29T05:16:57;100683.00;;;7.67;96.15
77325;BME280;66387;53.440;10.390;2023-04-29T05:19:23;100689.88;;;7.62;95.90
77325;BME280;66387;53.440;10.390;2023-04-29T05:21:48;100695.03;;;7.67;95.66
77325;BME280;66387;53.440;10.390;2023-04-29T05:24:13;100694.16;;;7.69;96.05
77325;BME280;66387;53.440;10.390;2023-04-29T05:26:39;100683.84;;;7.71;95.99
77325;BME280;66387;53.440;10.390;2023-04-29T05:29:05;100701.94;;;7.66;95.57
77325;BME280;66387;53.440;10.390;2023-04-29T05:31:31;100703.66;;;7.72;96.06
77325;BME280;66387;53.440;10.390;2023-04-29T05:33:56;100707.09;;;7.63;96.50
77325;BME280;66387;53.440;10.390;2023-04-29T05:36:22;100714.88;;;7.65;96.47
77325;BME280;66387;53.440;10.390;2023-04-29T05:38:47;100707.94;;;7.73;95.88
77325;BME280;66387;53.440;10.390;2023-04-29T05:41:12;100707.09;;;7.75;95.56
77325;BME280;66387;53.440;10.390;2023-04-29T05:43:38;100714.84;;;7.62;96.41
77325;BME280;66387;53.440;10.390;2023-04-29T05:46:03;100718.31;;;7.79;96.49
77325;BME280;66387;53.440;10.390;2023-04-29T05:48:28;100715.69;;;7.91;95.80
77325;BME280;66387;53.440;10.390;2023-04-29T05:50:54;100726.91;;;8.01;94.87
77325;BME280;66387;53.440;10.390;2023-04-29T05:53:19;100725.19;;;7.92;95.18
77325;BME280;66387;53.440;10.390;2023-04-29T05:55:45;100732.06;;;8.02;94.89
77325;BME280;66387;53.440;10.390;2023-04-29T05:58:11;100732.91;;;7.98;94.22
77325;BME280;66387;53.440;10.390;2023-04-29T06:00:36;100738.97;;;8.00;95.20
77325;BME280;66387;53.440;10.390;2023-04-29T06:03:01;100742.38;;;8.05;94.27
77325;BME280;66387;53.440;10.390;2023-04-29T06:05:27;100733.78;;;8.12;94.25
77325;BME280;66387;53.440;10.390;2023-04-29T06:07:52;100743.28;;;8.30;94.21
77325;BME280;66387;53.440;10.390;2023-04-29T06:10:17;100739.78;;;8.42;93.28
77325;BME280;66387;53.440;10.390;2023-04-29T06:12:43;100745.81;;;8.50;93.61
77325;BME280;66387;53.440;10.390;2023-04-29T06:15:08;100751.84;;;8.43;93.57
77325;BME280;66387;53.440;10.390;2023-04-29T06:17:34;100758.75;;;8.25;92.87
77325;BME280;66387;53.440;10.390;2023-04-29T06:19:59;100757.03;;;8.24;93.04
77325;BME280;66387;53.440;10.390;2023-04-29T06:22:26;100761.34;;;8.16;92.92
77325;BME280;66387;53.440;10.390;2023-04-29T06:24:51;100755.31;;;8.28;93.48
77325;BME280;66387;53.440;10.390;2023-04-29T06:27:16;100761.34;;;8.31;92.05
77325;BME280;66387;53.440;10.390;2023-04-29T06:29:42;100760.50;;;8.37;92.12
77325;BME280;66387;53.440;10.390;2023-04-29T06:32:07;100760.50;;;8.45;92.46
77325;BME280;66387;53.440;10.390;2023-04-29T06:34:33;100761.34;;;8.56;92.67
77325;BME280;66387;53.440;10.390;2023-04-29T06:36:58;100760.44;;;8.63;90.99
77325;BME280;66387;53.440;10.390;2023-04-29T06:39:24;100763.81;;;8.78;92.01
77325;BME280;66387;53.440;10.390;2023-04-29T06:41:49;100772.44;;;8.83;89.68
77325;BME280;66387;53.440;10.390;2023-04-29T06:44:15;100772.44;;;8.88;89.72
77325;BME280;66387;53.440;10.390;2023-04-29T06:46:42;100778.44;;;8.99;88.87
77325;BME280;66387;53.440;10.390;2023-04-29T06:49:07;100769.75;;;9.09;88.96
77325;BME280;66387;53.440;10.390;2023-04-29T06:51:32;100779.22;;;9.15;89.48
77325;BME280;66387;53.440;10.390;2023-04-29T06:53:58;100777.47;;;9.18;88.31
77325;BME280;66387;53.440;10.390;2023-04-29T06:56:23;100771.31;;;9.41;89.95
77325;BME280;66387;53.440;10.390;2023-04-29T06:58:48;100778.97;;;9.56;88.16
77325;BME280;66387;53.440;10.390;2023-04-29T07:01:14;100783.22;;;9.66;87.51
77325;BME280;66387;53.440;10.390;2023-04-29T07:03:39;100781.59;;;9.53;84.67
77325;BME280;66387;53.440;10.390;2023-04-29T07:06:04;100786.78;;;9.53;84.66
77325;BME280;66387;53.440;10.390;2023-04-29T07:08:30;100785.16;;;9.40;83.44
77325;BME280;66387;53.440;10.390;2023-04-29T07:10:57;100799.75;;;9.53;85.01
77325;BME280;66387;53.440;10.390;2023-04-29T07:13:23;100797.00;;;9.74;85.17
77325;BME280;66387;53.440;10.390;2023-04-29T07:15:48;100805.66;;;9.73;82.65
77325;BME280;66387;53.440;10.390;2023-04-29T07:18:14;100809.09;;;9.78;82.24
77325;BME280;66387;53.440;10.390;2023-04-29T07:20:39;100816.75;;;9.92;82.10
77325;BME280;66387;53.440;10.390;2023-04-29T07:23:04;100811.47;;;10.07;82.92
77325;BME280;66387;53.440;10.390;2023-04-29T07:25:30;100803.63;;;10.17;82.04
77325;BME280;66387;53.440;10.390;2023-04-29T07:27:55;100807.88;;;10.24;80.38
77325;BME280;66387;53.440;10.390;2023-04-29T07:30:21;100812.13;;;10.35;80.82
77325;BME280;66387;53.440;10.390;2023-04-29T07:32:47;100806.84;;;10.44;79.65
77325;BME280;66387;53.440;10.390;2023-04-29T07:35:12;100818.00;;;10.56;79.72
77325;BME280;66387;53.440;10.390;2023-04-29T07:37:38;100820.66;;;10.49;77.67
77325;BME280;66387;53.440;10.390;2023-04-29T07:40:03;100823.31;;;10.40;77.51
77325;BME280;66387;53.440;10.390;2023-04-29T07:42:29;100839.75;;;10.42;78.15
77325;BME280;66387;53.440;10.390;2023-04-29T07:44:54;100833.59;;;10.50;78.66
77325;BME280;66387;53.440;10.390;2023-04-29T07:47:19;100842.03;;;10.73;79.01
77325;BME280;66387;53.440;10.390;2023-04-29T07:49:45;100850.03;;;10.51;74.81
77325;BME280;66387;53.440;10.390;2023-04-29T07:52:10;100853.38;;;10.65;77.23
77325;BME280;66387;53.440;10.390;2023-04-29T07:54:35;100846.16;;;10.93;78.46
77325;BME280;66387;53.440;10.390;2023-04-29T07:57:02;100841.16;;;10.73;75.75
77325;BME280;66387;53.440;10.390;2023-04-29T07:59:31;100845.44;;;10.78;76.42
77325;BME280;66387;53.440;10.390;2023-04-29T08:01:56;100842.84;;;10.78;75.34
77325;BME280;66387;53.440;10.390;2023-04-29T08:04:22;100853.97;;;10.90;72.97
77325;BME280;66387;53.440;10.390;2023-04-29T08:06:47;100860.00;;;10.93;72.90
77325;BME280;66387;53.440;10.390;2023-04-29T08:09:13;100859.81;;;11.08;73.75
77325;BME280;66387;53.440;10.390;2023-04-29T08:11:38;100865.81;;;11.16;73.40
77325;BME280;66387;53.440;10.390;2023-04-29T08:14:04;100871.75;;;11.26;73.06
77325;BME280;66387;53.440;10.390;2023-04-29T08:16:29;100882.09;;;11.32;72.05
77325;BME280;66387;53.440;10.390;2023-04-29T08:18:55;100880.19;;;11.45;71.83
77325;BME280;66387;53.440;10.390;2023-04-29T08:21:21;100881.97;;;11.43;72.14
77325;BME280;66387;53.440;10.390;2023-04-29T08:23:46;100885.56;;;11.32;69.49
77325;BME280;66387;53.440;10.390;2023-04-29T08:26:12;100890.72;;;11.36;71.46
77325;BME280;66387;53.440;10.390;2023-04-29T08:28:38;100895.69;;;11.52;69.93
77325;BME280;66387;53.440;10.390;2023-04-29T08:31:03;100901.44;;;11.78;69.07
77325;BME280;66387;53.440;10.390;2023-04-29T08:33:31;100898.75;;;11.86;69.72
77325;BME280;66387;53.440;10.390;2023-04-29T08:35:57;100912.63;;;11.85;67.37
77325;BME280;66387;53.440;10.390;2023-04-29T08:38:24;100913.28;;;12.01;68.28
77325;BME280;66387;53.440;10.390;2023-04-29T08:40:49;100917.50;;;12.09;66.45
77325;BME280;66387;53.440;10.390;2023-04-29T08:43:15;100918.94;;;12.28;68.40
77325;BME280;66387;53.440;10.390;2023-04-29T08:45:41;100917.25;;;12.27;65.03
77325;BME280;66387;53.440;10.390;2023-04-29T08:48:07;100917.94;;;12.37;66.06
77325;BME280;66387;53.440;10.390;2023-04-29T08:50:37;100921.06;;;12.57;67.55
77325;BME280;66387;53.440;10.390;2023-04-29T08:53:10;100921.47;;;12.33;64.64
77325;BME280;66387;53.440;10.390;2023-04-29T08:55:43;100928.03;;;12.57;67.10
77325;BME280;66387;53.440;10.390;2023-04-29T08:58:09;100930.19;;;12.83;64.60
77325;BME280;66387;53.440;10.390;2023-04-29T09:00:35;100939.28;;;12.59;63.48
77325;BME280;66387;53.440;10.390;2023-04-29T09:03:15;100935.94;;;12.51;65.20
77325;BME280;66387;53.440;10.390;2023-04-29T09:05:42;100937.38;;;12.68;64.69
77325;BME280;66387;53.440;10.390;2023-04-29T09:08:10;100938.38;;;13.12;65.58
77325;BME280;66387;53.440;10.390;2023-04-29T09:10:38;100938.25;;;13.19;64.75
77325;BME280;66387;53.440;10.390;2023-04-29T09:13:03;100932.47;;;13.01;62.31
77325;BME280;66387;53.440;10.390;2023-04-29T09:15:34;100938.50;;;13.04;64.42
77325;BME280;66387;53.440;10.390;2023-04-29T09:18:00;100942.00;;;13.03;63.91
77325;BME280;66387;53.440;10.390;2023-04-29T09:20:27;100950.69;;;13.02;62.33
77325;BME280;66387;53.440;10.390;2023-04-29T09:23:02;100949.25;;;13.37;63.76
77325;BME280;66387;53.440;10.390;2023-04-29T09:25:28;100946.84;;;13.24;62.72
77325;BME280;66387;53.440;10.390;2023-04-29T09:27:54;100941.22;;;13.47;61.55
77325;BME280;66387;53.440;10.390;2023-04-29T09:30:20;100940.34;;;13.47;60.87
77325;BME280;66387;53.440;10.390;2023-04-29T09:33:03;100949.56;;;13.63;62.26
77325;BME280;66387;53.440;10.390;2023-04-29T09:35:28;100949.25;;;13.35;60.80
77325;BME280;66387;53.440;10.390;2023-04-29T09:38:10;100955.72;;;13.59;60.80
77325;BME280;66387;53.440;10.390;2023-04-29T09:40:36;100955.94;;;13.48;60.91
77325;BME280;66387;53.440;10.390;2023-04-29T09:43:01;100958.56;;;13.91;60.44
77325;BME280;66387;53.440;10.390;2023-04-29T09:45:36;100957.38;;;14.06;58.42
77325;BME280;66387;53.440;10.390;2023-04-29T09:48:03;100960.81;;;14.06;57.33
77325;BME280;66387;53.440;10.390;2023-04-29T09:50:29;100963.56;;;14.42;58.29
77325;BME280;66387;53.440;10.390;2023-04-29T09:52:54;100963.03;;;14.63;58.60
77325;BME280;66387;53.440;10.390;2023-04-29T09:55:20;100963.56;;;14.76;57.11
77325;BME280;66387;53.440;10.390;2023-04-29T09:57:45;100961.28;;;14.63;55.61
77325;BME280;66387;53.440;10.390;2023-04-29T10:00:12;100966.06;;;14.82;57.00
77325;BME280;66387;53.440;10.390;2023-04-29T10:02:41;100960.31;;;15.01;56.11
77325;BME280;66387;53.440;10.390;2023-04-29T10:05:08;100970.47;;;15.13;55.65
77325;BME280;66387;53.440;10.390;2023-04-29T10:07:34;100971.75;;;14.97;54.71
77325;BME280;66387;53.440;10.390;2023-04-29T10:10:00;100969.72;;;15.08;53.04
77325;BME280;66387;53.440;10.390;2023-04-29T10:12:26;100973.38;;;14.67;51.59
77325;BME280;66387;53.440;10.390;2023-04-29T10:15:11;100973.19;;;14.75;54.47
77325;BME280;66387;53.440;10.390;2023-04-29T10:17:45;100975.56;;;14.84;53.32
77325;BME280;66387;53.440;10.390;2023-04-29T10:20:18;100969.59;;;15.13;52.78
77325;BME280;66387;53.440;10.390;2023-04-29T10:22:47;100972.31;;;15.42;54.99
77325;BME280;66387;53.440;10.390;2023-04-29T10:25:14;100968.66;;;15.15;53.04
77325;BME280;66387;53.440;10.390;2023-04-29T10:27:41;100980.22;;;15.07;53.45
77325;BME280;66387;53.440;10.390;2023-04-29T10:30:11;100975.03;;;15.38;53.94
77325;BME280;66387;53.440;10.390;2023-04-29T10:32:39;100981.09;;;15.07;52.61
77325;BME280;66387;53.440;10.390;2023-04-29T10:35:07;100974.50;;;14.93;54.43
77325;BME280;66387;53.440;10.390;2023-04-29T10:37:34;100979.34;;;15.08;53.43
77325;BME280;66387;53.440;10.390;2023-04-29T10:43:04;100973.63;;;15.58;53.58
77325;BME280;66387;53.440;10.390;2023-04-29T10:45:30;100968.47;;;15.86;53.20
77325;BME280;66387;53.440;10.390;2023-04-29T10:50:34;100972.13;;;15.81;50.98
77325;BME280;66387;53.440;10.390;2023-04-29T10:53:04;100974.13;;;15.71;50.96
77325;BME280;66387;53.440;10.390;2023-04-29T10:55:30;100974.13;;;16.30;52.34
77325;BME280;66387;53.440;10.390;2023-04-29T10:57:56;100983.81;;;15.98;51.04
77325;BME280;66387;53.440;10.390;2023-04-29T11:00:25;100975.59;;;15.81;53.49
77325;BME280;66387;53.440;10.390;2023-04-29T11:02:52;100978.69;;;14.98;53.13
77325;BME280;66387;53.440;10.390;2023-04-29T11:05:31;100979.91;;;14.85;53.60
77325;BME280;66387;53.440;10.390;2023-04-29T11:08:14;100983.44;;;15.18;53.50
77325;BME280;66387;53.440;10.390;2023-04-29T11:10:47;100983.38;;;14.86;52.33
77325;BME280;66387;53.440;10.390;2023-04-29T11:13:29;100988.09;;;15.05;53.01
77325;BME280;66387;53.440;10.390;2023-04-29T11:16:09;100982.09;;;15.02;53.12
77325;BME280;66387;53.440;10.390;2023-04-29T11:18:36;100987.31;;;15.02;52.86
77325;BME280;66387;53.440;10.390;2023-04-29T11:21:21;100998.78;;;15.30;51.45
77325;BME280;66387;53.440;10.390;2023-04-29T11:23:46;100985.81;;;15.90;50.74
77325;BME280;66387;53.440;10.390;2023-04-29T11:26:11;100985.91;;;15.87;50.71
77325;BME280;66387;53.440;10.390;2023-04-29T11:28:37;100989.16;;;15.32;51.17
77325;BME280;66387;53.440;10.390;2023-04-29T11:31:03;101004.63;;;15.07;52.09
77325;BME280;66387;53.440;10.390;2023-04-29T11:33:31;100999.78;;;14.92;52.83
77325;BME280;66387;53.440;10.390;2023-04-29T11:35:57;100998.81;;;14.95;53.34
77325;BME280;66387;53.440;10.390;2023-04-29T11:38:24;101008.88;;;15.11;52.21
77325;BME280;66387;53.440;10.390;2023-04-29T11:40:50;101012.69;;;15.66;51.34
77325;BME280;66387;53.440;10.390;2023-04-29T11:43:16;100999.25;;;16.07;47.33
77325;BME280;66387;53.440;10.390;2023-04-29T11:45:44;101003.44;;;16.72;46.92
77325;BME280;66387;53.440;10.390;2023-04-29T11:48:15;101012.44;;;16.34;46.75
77325;BME280;66387;53.440;10.390;2023-04-29T11:50:41;101004.75;;;16.57;45.53
77325;BME280;66387;53.440;10.390;2023-04-29T11:53:06;101015.31;;;16.82;45.47
77325;BME280;66387;53.440;10.390;2023-04-29T11:55:32;101014.47;;;16.81;45.22
77325;BME280;66387;53.440;10.390;2023-04-29T11:57:58;101013.81;;;16.75;46.46
77325;BME280;66387;53.440;10.390;2023-04-29T12:00:24;101016.88;;;17.13;47.08
77325;BME280;66387;53.440;10.390;2023-04-29T12:02:49;101027.59;;;17.07;46.15
77325;BME280;66387;53.440;10.390;2023-04-29T12:05:14;101025.84;;;16.23;46.22
77325;BME280;66387;53.440;10.390;2023-04-29T12:07:41;101027.34;;;16.61;46.71
77325;BME280;66387;53.440;10.390;2023-04-29T12:10:10;101021.03;;;16.39;46.08
77325;BME280;66387;53.440;10.390;2023-04-29T12:12:37;101023.34;;;15.89;48.33
77325;BME280;66387;53.440;10.390;2023-04-29T12:15:06;101019.88;;;16.47;46.90
77325;BME280;66387;53.440;10.390;2023-04-29T12:17:32;101037.66;;;16.08;47.32
77325;BME280;66387;53.440;10.390;2023-04-29T12:19:57;101026.63;;;15.97;47.56
77325;BME280;66387;53.440;10.390;2023-04-29T12:22:30;101026.91;;;15.56;48.83
77325;BME280;66387;53.440;10.390;2023-04-29T12:24:55;101032.88;;;15.61;50.00
77325;BME280;66387;53.440;10.390;2023-04-29T12:27:21;101033.78;;;15.60;48.04
77325;BME280;66387;53.440;10.390;2023-04-29T12:29:46;101026.44;;;15.40;48.61
77325;BME280;66387;53.440;10.390;2023-04-29T12:32:16;101033.66;;;15.31;50.59
77325;BME280;66387;53.440;10.390;2023-04-29T12:34:41;101042.13;;;15.40;50.45
77325;BME280;66387;53.440;10.390;2023-04-29T12:37:06;101037.47;;;15.19;50.53
77325;BME280;66387;53.440;10.390;2023-04-29T12:39:33;101037.00;;;15.36;51.35
77325;BME280;66387;53.440;10.390;2023-04-29T12:42:00;101045.56;;;15.42;49.84
77325;BME280;66387;53.440;10.390;2023-04-29T12:44:35;101031.41;;;15.51;49.63
77325;BME280;66387;53.440;10.390;2023-04-29T12:47:11;101039.38;;;16.39;48.54
77325;BME280;66387;53.440;10.390;2023-04-29T12:49:40;101038.72;;;17.14;44.88
77325;BME280;66387;53.440;10.390;2023-04-29T12:52:06;101035.53;;;16.78;45.50
77325;BME280;66387;53.440;10.390;2023-04-29T12:54:35;101038.41;;;16.71;45.86
77325;BME280;66387;53.440;10.390;2023-04-29T12:57:01;101029.91;;;17.41;45.43